createdAt,value
2023-01-27T00:00:29.555Z,18.90
2023-01-27T00:04:46.596Z,18.52
2023-01-27T00:09:03.692Z,19.77
2023-01-27T00:13:27.001Z,18.20
2023-01-27T00:17:44.145Z,17.08
2023-01-27T00:22:19.923Z,18.23
2023-01-27T00:26:36.997Z,19.02
2023-01-27T00:30:54.155Z,17.52
2023-01-27T00:35:11.309Z,19.90
2023-01-27T00:39:28.397Z,19.05
2023-01-27T00:43:50.669Z,19.02
2023-01-27T00:48:07.765Z,18.98
2023-01-27T00:52:25.036Z,22.53
2023-01-27T00:56:42.302Z,23.02
2023-01-27T01:01:01.991Z,22.37
2023-01-27T01:05:19.062Z,23.38
2023-01-27T01:09:36.106Z,23.92
2023-01-27T01:13:55.926Z,24.20
2023-01-27T01:18:13.967Z,23.45
2023-01-27T01:22:31.039Z,23.60
2023-01-27T01:26:48.289Z,25.42
2023-01-27T01:31:13.796Z,24.33
2023-01-27T01:35:31.070Z,23.65
2023-01-27T01:39:48.161Z,24.03
2023-01-27T01:44:25.235Z,26.10
2023-01-27T01:48:51.030Z,23.88
2023-01-27T01:53:10.258Z,25.80
2023-01-27T01:57:32.930Z,25.73
2023-01-27T02:01:52.851Z,25.30
2023-01-27T02:06:11.249Z,25.35
2023-01-27T02:10:28.724Z,25.65
2023-01-27T02:14:45.873Z,26.58
2023-01-27T02:19:03.465Z,27.10
2023-01-27T02:23:38.273Z,25.67
2023-01-27T02:27:55.375Z,26.10
2023-01-27T02:32:26.729Z,25.00
2023-01-27T02:36:49.865Z,28.20
2023-01-27T02:41:25.794Z,27.63
2023-01-27T02:45:45.342Z,25.05
2023-01-27T02:50:02.403Z,25.40
2023-01-27T02:54:19.470Z,25.40
2023-01-27T02:58:36.677Z,24.70
2023-01-27T03:02:53.764Z,24.90
2023-01-27T03:07:10.833Z,23.77
2023-01-27T03:11:46.788Z,22.75
2023-01-27T03:16:23.764Z,23.17
2023-01-27T03:20:46.006Z,21.02
2023-01-27T03:25:03.087Z,21.83
2023-01-27T03:29:38.863Z,22.90
2023-01-27T03:33:55.953Z,22.90
2023-01-27T03:38:32.469Z,24.80
2023-01-27T03:43:11.552Z,24.67
2023-01-27T03:47:28.719Z,24.95
2023-01-27T03:51:45.816Z,25.65
2023-01-27T03:56:04.502Z,23.95
2023-01-27T04:00:21.685Z,23.23
2023-01-27T04:04:57.634Z,22.07
2023-01-27T04:09:20.500Z,22.27
2023-01-27T04:13:37.869Z,23.38
2023-01-27T04:17:54.939Z,24.30
2023-01-27T04:22:13.557Z,23.17
2023-01-27T04:26:34.838Z,21.73
2023-01-27T04:30:51.926Z,22.58
2023-01-27T04:35:09.250Z,22.00
2023-01-27T04:39:26.473Z,22.50
2023-01-27T04:43:43.543Z,19.77
2023-01-27T04:48:00.703Z,22.90
2023-01-27T04:52:17.811Z,23.17
2023-01-27T04:56:37.345Z,25.30
2023-01-27T05:00:54.468Z,26.23
2023-01-27T05:05:12.320Z,26.10
2023-01-27T05:09:29.586Z,26.55
2023-01-27T05:13:46.966Z,27.10
2023-01-27T05:18:04.160Z,27.03
2023-01-27T05:22:21.640Z,26.03
2023-01-27T05:26:38.867Z,27.17
2023-01-27T05:31:07.697Z,27.53
2023-01-27T05:35:24.837Z,26.90
2023-01-27T05:39:41.890Z,27.23
2023-01-27T05:43:59.515Z,25.45
2023-01-27T05:48:16.828Z,24.55
2023-01-27T05:52:33.901Z,28.33
2023-01-27T05:56:51.062Z,24.95
2023-01-27T06:01:11.545Z,24.27
2023-01-27T06:05:28.636Z,26.13
2023-01-27T06:09:45.739Z,23.58
2023-01-27T06:14:02.856Z,22.90
2023-01-27T06:18:19.991Z,24.35
2023-01-27T06:22:37.117Z,24.17
2023-01-27T06:26:55.687Z,25.42
2023-01-27T06:31:16.446Z,22.88
2023-01-27T06:35:35.072Z,22.83
2023-01-27T06:39:52.166Z,20.65
2023-01-27T06:44:09.254Z,21.95
2023-01-27T06:48:27.542Z,22.02
2023-01-27T06:52:44.760Z,23.20
2023-01-27T06:57:01.872Z,22.70
2023-01-27T07:01:19.199Z,23.88
2023-01-27T07:05:38.658Z,22.73
2023-01-27T07:09:55.845Z,24.40
2023-01-27T07:14:12.944Z,26.45
2023-01-27T07:18:30.089Z,22.23
2023-01-27T07:22:47.246Z,23.23
2023-01-27T07:27:04.512Z,23.77
2023-01-27T07:31:21.957Z,24.67
2023-01-27T07:35:41.143Z,24.65
2023-01-27T07:39:58.255Z,22.42
2023-01-27T07:44:15.476Z,23.00
2023-01-27T07:48:32.585Z,21.67
2023-01-27T07:52:49.792Z,20.87
2023-01-27T07:57:06.837Z,22.23
2023-01-27T08:01:24.404Z,22.23
2023-01-27T08:05:43.077Z,22.58
2023-01-27T08:10:01.064Z,21.48
2023-01-27T08:14:18.240Z,19.23
2023-01-27T08:18:35.336Z,21.05
2023-01-27T08:22:52.599Z,19.63
2023-01-27T08:27:09.766Z,21.40
2023-01-27T08:31:26.885Z,20.45
2023-01-27T08:35:44.807Z,20.80
2023-01-27T08:40:01.941Z,18.80
2023-01-27T08:44:19.270Z,19.13
2023-01-27T08:48:37.499Z,19.43
2023-01-27T08:52:54.810Z,19.02
2023-01-27T08:57:12.025Z,18.60
2023-01-27T09:01:29.141Z,17.33
2023-01-27T09:05:47.854Z,14.20
2023-01-27T09:10:14.233Z,19.17
2023-01-27T09:14:34.069Z,15.90
2023-01-27T09:23:08.188Z,16.25
2023-01-27T09:27:37.227Z,15.07
2023-01-27T09:31:56.110Z,17.33
2023-01-27T09:36:17.478Z,19.08
2023-01-27T09:40:46.374Z,22.98
2023-01-27T09:45:17.155Z,19.42
2023-01-27T09:49:55.749Z,18.98
2023-01-27T09:54:38.991Z,19.02
2023-01-27T09:58:59.103Z,16.33
2023-01-27T10:04:06.532Z,17.60
2023-01-27T10:09:05.339Z,17.30
2023-01-27T10:13:25.229Z,17.20
2023-01-27T10:18:14.188Z,17.77
2023-01-27T10:23:10.122Z,18.77
2023-01-27T10:27:35.671Z,17.35
2023-01-27T10:32:11.539Z,19.42
2023-01-27T10:36:51.491Z,17.80
2023-01-27T10:41:27.624Z,18.02
2023-01-27T10:45:58.523Z,17.73
2023-01-27T10:50:19.499Z,18.17
2023-01-27T10:54:42.707Z,17.90
2023-01-27T10:59:22.602Z,16.95
2023-01-27T11:04:03.903Z,16.67
2023-01-27T11:08:26.752Z,16.45
2023-01-27T11:12:51.961Z,15.73
2023-01-27T11:17:36.591Z,15.38
2023-01-27T11:22:06.709Z,14.95
2023-01-27T11:26:44.638Z,16.52
2023-01-27T11:31:22.061Z,15.68
2023-01-27T11:35:39.346Z,15.38
2023-01-27T11:39:56.812Z,14.13
2023-01-27T11:44:22.340Z,13.53
2023-01-27T11:48:44.053Z,15.13
2023-01-27T11:53:17.336Z,14.73
2023-01-27T11:57:36.324Z,14.70
2023-01-27T12:02:09.960Z,13.68
2023-01-27T12:06:39.371Z,15.30
2023-01-27T12:11:15.764Z,15.63
2023-01-27T12:15:33.530Z,14.23
2023-01-27T12:19:55.459Z,16.25
2023-01-27T12:24:24.367Z,15.48
2023-01-27T12:28:53.136Z,18.05
2023-01-27T12:33:13.903Z,18.50
2023-01-27T12:37:38.423Z,18.90
2023-01-27T12:41:55.673Z,17.58
2023-01-27T12:46:12.869Z,16.10
2023-01-27T12:50:32.667Z,18.80
2023-01-27T12:54:53.119Z,18.80
2023-01-27T12:59:19.049Z,17.13
2023-01-27T13:03:42.020Z,18.27
2023-01-27T13:07:59.882Z,19.10
2023-01-27T13:12:24.970Z,20.80
2023-01-27T13:16:42.058Z,19.90
2023-01-27T13:21:13.050Z,20.25
2023-01-27T13:25:55.616Z,19.75
2023-01-27T13:30:22.600Z,18.67
2023-01-27T13:34:54.996Z,16.52
2023-01-27T13:39:17.401Z,17.02
2023-01-27T13:43:41.387Z,17.70
2023-01-27T13:48:08.410Z,17.52
2023-01-27T13:52:25.660Z,19.23
2023-01-27T13:57:04.801Z,19.08
2023-01-27T14:01:47.102Z,19.55
2023-01-27T14:06:29.722Z,19.73
2023-01-27T14:10:59.349Z,18.33
2023-01-27T14:15:39.941Z,18.17
2023-01-27T14:20:33.176Z,18.77
2023-01-27T14:24:59.979Z,18.52
2023-01-27T14:29:50.611Z,18.38
2023-01-27T14:34:22.694Z,16.67
2023-01-27T14:38:50.954Z,17.67
2023-01-27T14:43:10.823Z,16.70
2023-01-27T14:47:49.587Z,16.08
2023-01-27T14:53:02.891Z,15.18
2023-01-27T14:57:38.363Z,14.27
2023-01-27T15:02:19.025Z,15.38
2023-01-27T15:06:49.505Z,15.07
2023-01-27T15:11:37.433Z,13.65
2023-01-27T15:16:05.625Z,13.98
2023-01-27T15:20:25.915Z,14.55
2023-01-27T15:25:02.396Z,14.38
2023-01-27T15:29:25.809Z,14.32
2023-01-27T15:33:53.339Z,14.45
2023-01-27T15:38:29.151Z,12.57
2023-01-27T15:42:58.151Z,11.63
2023-01-27T15:47:22.495Z,13.02
2023-01-27T15:51:39.793Z,13.63
2023-01-27T15:55:59.454Z,13.40
2023-01-27T16:00:37.751Z,14.05
2023-01-27T16:05:25.031Z,13.87
2023-01-27T16:09:45.482Z,15.65
2023-01-27T16:14:25.475Z,14.50
2023-01-27T16:18:59.505Z,18.52
2023-01-27T16:23:33.174Z,21.58
2023-01-27T16:27:59.194Z,20.90
2023-01-27T16:32:19.609Z,21.23
2023-01-27T16:36:36.865Z,22.48
2023-01-27T16:41:03.528Z,23.77
2023-01-27T16:45:23.453Z,25.25
2023-01-27T16:49:42.027Z,24.85
2023-01-27T16:54:01.083Z,24.05
2023-01-27T16:58:23.279Z,22.77
2023-01-27T17:02:42.472Z,18.83
2023-01-27T17:07:11.572Z,22.60
2023-01-27T17:11:32.891Z,25.23
2023-01-27T17:15:49.968Z,27.88
2023-01-27T17:20:08.399Z,24.63
2023-01-27T17:24:37.282Z,25.55
2023-01-27T17:28:54.827Z,25.92
2023-01-27T17:33:19.065Z,24.02
2023-01-27T17:37:43.146Z,25.70
2023-01-27T17:42:01.441Z,27.83
2023-01-27T17:50:39.331Z,25.90
2023-01-27T17:55:02.375Z,26.58
2023-01-27T17:59:22.093Z,27.23
2023-01-27T18:03:39.946Z,20.88
2023-01-27T18:07:57.539Z,21.10
2023-01-27T18:12:35.897Z,18.40
2023-01-27T18:17:02.708Z,18.83
2023-01-27T18:21:24.929Z,18.42
2023-01-27T18:25:51.562Z,18.08
2023-01-27T18:30:16.033Z,18.55
2023-01-27T18:34:34.204Z,17.25
2023-01-27T18:38:51.603Z,19.42
2023-01-27T18:43:10.041Z,19.73
2023-01-27T18:47:29.725Z,20.02
2023-01-27T18:51:46.804Z,20.77
2023-01-27T18:56:04.469Z,17.40
2023-01-27T19:00:24.846Z,17.45
2023-01-27T19:04:42.618Z,17.85
2023-01-27T19:08:59.710Z,16.75
2023-01-27T19:13:17.330Z,16.40
2023-01-27T19:17:36.694Z,18.00
2023-01-27T19:21:53.759Z,18.27
2023-01-27T19:26:19.134Z,28.38
2023-01-27T19:30:36.482Z,27.65
2023-01-27T19:34:53.595Z,37.40
2023-01-27T19:39:16.324Z,23.45
2023-01-27T19:43:33.405Z,25.90
2023-01-27T19:47:50.706Z,27.73
2023-01-27T19:52:07.788Z,39.33
2023-01-27T19:56:30.237Z,41.30
2023-01-27T20:00:47.600Z,45.50
2023-01-27T20:05:05.115Z,28.17
2023-01-27T20:09:22.357Z,27.53
2023-01-27T20:13:39.437Z,38.20
2023-01-27T20:17:56.608Z,53.08
2023-01-27T20:22:13.665Z,28.98
2023-01-27T20:26:32.332Z,26.70
2023-01-27T20:30:49.466Z,34.53
2023-01-27T20:35:06.605Z,29.38
2023-01-27T20:39:23.666Z,26.08
2023-01-27T20:43:40.751Z,25.25
2023-01-27T20:47:59.366Z,26.77
2023-01-27T20:52:16.419Z,24.27
2023-01-27T20:56:33.469Z,23.98
2023-01-27T21:00:50.581Z,23.17
2023-01-27T21:05:08.248Z,22.83
2023-01-27T21:09:25.359Z,26.42
2023-01-27T21:13:42.423Z,22.83
2023-01-27T21:18:00.012Z,25.40
2023-01-27T21:22:17.107Z,22.97
2023-01-27T21:26:36.367Z,24.75
2023-01-27T21:30:53.407Z,25.20
2023-01-27T21:35:10.513Z,25.88
2023-01-27T21:39:27.587Z,25.98
2023-01-27T21:44:03.371Z,27.05
2023-01-27T21:48:20.567Z,26.67
2023-01-27T21:52:45.769Z,25.45
2023-01-27T21:57:02.798Z,29.98
2023-01-27T22:01:20.013Z,24.27
2023-01-27T22:05:39.076Z,24.17
2023-01-27T22:09:56.405Z,25.83
2023-01-27T22:14:13.491Z,26.05
2023-01-27T22:18:31.238Z,25.38
2023-01-27T22:22:48.433Z,26.33
2023-01-27T22:27:05.584Z,27.65
2023-01-27T22:31:22.656Z,25.75
2023-01-27T22:35:40.024Z,27.23
2023-01-27T22:39:57.195Z,28.03
2023-01-27T22:44:14.682Z,26.38
2023-01-27T22:48:31.820Z,26.47
2023-01-27T22:52:48.910Z,36.55
2023-01-27T22:57:05.953Z,27.88
2023-01-27T23:01:23.421Z,27.35
2023-01-27T23:05:40.527Z,25.53
2023-01-27T23:09:57.668Z,24.75
2023-01-27T23:14:14.783Z,22.50
2023-01-27T23:18:32.061Z,23.85
2023-01-27T23:22:49.237Z,21.13
2023-01-27T23:27:06.338Z,22.65
2023-01-27T23:31:23.491Z,23.58
2023-01-27T23:35:41.016Z,26.80
2023-01-27T23:39:58.216Z,24.45
2023-01-27T23:44:15.344Z,23.15
2023-01-27T23:48:32.429Z,23.20
2023-01-27T23:52:49.554Z,21.92
2023-01-27T23:57:06.638Z,22.75
